Time;durP1;ratioP1;P1;durP2;ratioP2;P2;SDS_P1;SDS_P2;PMS_P1;PMS_P2;Temp;Humidity;BMP_temperature;BMP_pressure;BME280_temperature;BME280_humidity;BME280_pressure;Samples;Min_cycle;Max_cycle;Signal;HPM_P1;HPM_P2
2022/11/06 00:01:31;;;;;;;24.90;20.63;;;6.00;99.90;;;;;;4986906;28;20672;-85
2022/11/06 00:03:58;;;;;;;24.67;19.47;;;6.10;99.90;;;;;;4981909;28;20656;-85
2022/11/06 00:09:12;;;;;;;26.60;17.80;;;6.10;99.90;;;;;;4985514;28;20572;-85
2022/11/06 00:11:41;;;;;;;26.67;20.30;;;5.90;99.90;;;;;;4981544;28;20625;-85
2022/11/06 00:14:08;;;;;;;92.40;23.27;;;5.80;99.90;;;;;;4978994;28;20640;-85
2022/11/06 00:16:37;;;;;;;19.73;16.60;;;5.80;99.90;;;;;;4982949;28;21220;-85
2022/11/06 00:19:04;;;;;;;19.87;18.07;;;6.00;99.90;;;;;;4984110;28;20616;-86
2022/11/06 00:21:31;;;;;;;19.63;17.67;;;6.10;99.90;;;;;;4986371;28;20669;-87
2022/11/06 00:23:59;;;;;;;20.30;18.33;;;6.00;99.90;;;;;;4985167;28;20662;-88
2022/11/06 00:26:28;;;;;;;19.77;18.03;;;6.10;99.90;;;;;;4978129;28;20640;-84
2022/11/06 00:28:57;;;;;;;21.57;17.93;;;5.70;99.90;;;;;;4982592;28;20652;-84
2022/11/06 00:31:25;;;;;;;25.13;17.50;;;6.00;99.90;;;;;;4979140;28;20657;-84
2022/11/06 00:33:53;;;;;;;28.27;17.13;;;5.90;99.90;;;;;;4978424;28;20640;-85
2022/11/06 00:36:23;;;;;;;20.90;18.50;;;6.00;99.90;;;;;;4980012;28;20625;-85
2022/11/06 00:38:52;;;;;;;20.20;18.50;;;6.10;99.90;;;;;;4981098;28;20677;-85
2022/11/06 00:41:19;;;;;;;19.83;17.90;;;6.00;99.90;;;;;;4979097;28;21027;-84
2022/11/06 00:43:49;;;;;;;43.83;18.87;;;6.20;99.90;;;;;;4981764;28;20651;-85
2022/11/06 00:46:18;;;;;;;30.13;18.70;;;5.90;99.90;;;;;;4980159;28;20656;-85
2022/11/06 00:48:45;;;;;;;38.13;25.87;;;5.90;99.90;;;;;;4979101;28;20649;-84
2022/11/06 00:51:16;;;;;;;43.53;23.57;;;5.80;99.90;;;;;;4980553;28;20623;-85
2022/11/06 00:53:43;;;;;;;92.87;24.90;;;5.80;99.90;;;;;;4982868;28;20623;-86
2022/11/06 00:56:12;;;;;;;174.80;28.67;;;5.80;99.90;;;;;;4979991;28;20643;-85
2022/11/06 00:58:40;;;;;;;140.63;27.30;;;6.10;99.90;;;;;;4980231;28;20676;-84
2022/11/06 01:01:08;;;;;;;175.00;28.33;;;5.80;99.90;;;;;;4983628;28;20674;-85
2022/11/06 01:03:37;;;;;;;93.13;22.30;;;5.80;99.90;;;;;;4978110;28;20700;-85
2022/11/06 01:06:06;;;;;;;93.87;21.20;;;5.70;99.90;;;;;;4980943;28;20636;-84
2022/11/06 01:08:33;;;;;;;133.77;24.00;;;5.80;99.90;;;;;;4977524;28;20662;-84
2022/11/06 01:11:06;;;;;;;139.87;24.53;;;5.90;99.90;;;;;;4979012;28;20619;-84
2022/11/06 01:13:33;;;;;;;19.27;17.47;;;5.60;99.90;;;;;;4979842;28;21300;-84
2022/11/06 01:15:59;;;;;;;35.50;17.77;;;5.80;99.90;;;;;;4976468;28;20625;-84
2022/11/06 01:18:26;;;;;;;41.17;18.53;;;5.80;99.90;;;;;;4982180;28;20653;-84
2022/11/06 01:20:54;;;;;;;71.97;19.80;;;5.90;99.90;;;;;;4977398;28;20623;-85
2022/11/06 01:23:21;;;;;;;42.43;17.97;;;6.00;99.90;;;;;;4982499;28;20939;-85
2022/11/06 01:25:56;;;;;;;62.53;20.40;;;5.90;99.90;;;;;;4983451;28;20632;-85
2022/11/06 01:28:23;;;;;;;100.60;21.80;;;5.70;99.90;;;;;;4977671;28;20681;-85
2022/11/06 01:30:50;;;;;;;78.00;19.33;;;5.70;99.90;;;;;;4982512;28;20648;-85
2022/11/06 01:33:17;;;;;;;28.27;17.17;;;5.60;99.90;;;;;;4985121;28;20632;-85
2022/11/06 01:35:45;;;;;;;32.07;17.80;;;5.70;99.90;;;;;;4981745;28;21280;-85
2022/11/06 01:38:13;;;;;;;115.47;23.27;;;5.60;99.90;;;;;;4983613;28;21236;-85
2022/11/06 01:40:40;;;;;;;88.90;19.80;;;5.70;99.90;;;;;;4979888;28;20640;-85
2022/11/06 01:43:14;;;;;;;66.97;19.87;;;5.60;99.90;;;;;;4978979;28;20613;-85
2022/11/06 01:45:42;;;;;;;35.10;17.13;;;5.80;99.90;;;;;;4981270;28;20656;-85
2022/11/06 01:48:10;;;;;;;31.80;17.10;;;5.70;99.90;;;;;;4984075;28;20656;-84
2022/11/06 01:50:37;;;;;;;21.37;18.33;;;5.50;99.90;;;;;;4984880;28;20640;-84
2022/11/06 01:53:05;;;;;;;20.97;16.00;;;5.70;99.90;;;;;;4987672;28;21039;-85
2022/11/06 01:55:38;;;;;;;64.90;18.77;;;5.90;99.90;;;;;;4981035;28;20708;-85
2022/11/06 01:58:07;;;;;;;50.57;17.67;;;5.70;99.90;;;;;;4980800;28;21252;-85
2022/11/06 02:00:34;;;;;;;28.90;15.50;;;5.60;99.90;;;;;;4981337;28;20624;-85
2022/11/06 02:03:01;;;;;;;46.03;16.60;;;5.70;99.90;;;;;;4983979;28;20696;-84
2022/11/06 02:05:28;;;;;;;38.07;15.17;;;5.70;99.90;;;;;;4977699;28;20631;-85
2022/11/06 02:07:56;;;;;;;15.10;13.80;;;5.60;99.90;;;;;;4980309;28;20653;-84
2022/11/06 02:10:23;;;;;;;14.80;13.60;;;5.70;99.90;;;;;;4966784;28;20640;-85
2022/11/06 02:13:01;;;;;;;15.50;14.30;;;5.60;99.90;;;;;;4980710;28;20631;-85
2022/11/06 02:15:39;;;;;;;26.17;14.50;;;5.50;99.90;;;;;;4979257;28;20628;-84
2022/11/06 02:18:20;;;;;;;20.87;13.77;;;5.60;99.90;;;;;;4979343;28;20683;-85
2022/11/06 02:21:13;;;;;;;30.03;15.90;;;5.60;99.90;;;;;;4977506;28;20617;-85
2022/11/06 02:24:09;;;;;;;98.67;18.70;;;5.50;99.90;;;;;;4958838;28;20620;-85
2022/11/06 02:27:00;;;;;;;56.03;16.13;;;5.30;99.90;;;;;;4982841;28;21206;-85
2022/11/06 02:29:32;;;;;;;27.13;14.27;;;5.00;99.90;;;;;;4982674;28;20644;-84
2022/11/06 02:32:04;;;;;;;121.37;19.77;;;5.40;99.90;;;;;;4985134;28;20620;-85
2022/11/06 02:34:31;;;;;;;25.20;14.60;;;5.20;99.90;;;;;;4977703;28;20696;-85
2022/11/06 02:37:01;;;;;;;13.50;12.37;;;5.10;99.90;;;;;;4980007;28;20997;-85
2022/11/06 02:39:31;;;;;;;15.37;13.87;;;5.10;99.90;;;;;;4977996;28;20637;-85
2022/11/06 02:42:00;;;;;;;17.90;14.10;;;5.30;99.90;;;;;;4982897;28;20665;-85
2022/11/06 02:44:30;;;;;;;14.30;13.13;;;5.20;99.90;;;;;;4977947;28;20636;-85
2022/11/06 02:46:59;;;;;;;127.70;21.83;;;5.40;99.90;;;;;;4980740;28;20629;-85
2022/11/06 02:49:32;;;;;;;156.53;21.73;;;5.40;99.90;;;;;;4983292;28;20669;-86
2022/11/06 02:52:05;;;;;;;164.33;22.30;;;4.90;99.90;;;;;;4978961;28;21022;-85
2022/11/06 02:54:37;;;;;;;56.67;14.27;;;4.80;99.90;;;;;;4979172;28;20628;-85
2022/11/06 02:57:08;;;;;;;192.93;22.30;;;5.00;99.90;;;;;;4983137;28;20655;-85
2022/11/06 02:59:45;;;;;;;183.30;22.90;;;5.10;99.90;;;;;;4977043;28;20624;-84
2022/11/06 03:02:18;;;;;;;25.43;12.30;;;4.90;99.90;;;;;;4980954;28;20661;-86
2022/11/06 03:04:50;;;;;;;35.87;13.13;;;5.20;99.90;;;;;;4983550;28;21000;-86
2022/11/06 03:07:24;;;;;;;38.73;11.30;;;5.30;99.90;;;;;;4977618;28;20660;-86
2022/11/06 03:09:51;;;;;;;39.53;13.07;;;5.20;99.90;;;;;;4979853;28;20712;-86
2022/11/06 03:12:25;;;;;;;16.40;10.53;;;5.10;99.90;;;;;;4983203;28;20630;-86
2022/11/06 03:14:56;;;;;;;60.20;13.83;;;5.20;99.90;;;;;;4983264;28;20617;-85
2022/11/06 03:17:30;;;;;;;50.63;13.30;;;5.30;99.90;;;;;;4979612;28;20680;-85
2022/11/06 03:20:05;;;;;;;34.57;12.00;;;5.20;99.90;;;;;;4980587;28;20633;-84
2022/11/06 03:22:39;;;;;;;104.00;16.97;;;5.10;99.90;;;;;;4985147;28;20671;-84
2022/11/06 03:25:15;;;;;;;13.70;11.00;;;5.20;99.90;;;;;;4991563;28;20632;-85
2022/11/06 03:27:51;;;;;;;61.33;13.13;;;5.30;99.90;;;;;;4990139;28;20641;-84
2022/11/06 03:30:18;;;;;;;33.97;12.47;;;5.00;99.90;;;;;;4984537;28;20675;-84
2022/11/06 03:32:49;;;;;;;38.70;12.80;;;5.00;99.90;;;;;;4992979;28;20621;-84
2022/11/06 03:35:22;;;;;;;60.10;12.27;;;5.00;99.90;;;;;;4988907;28;20629;-84
2022/11/06 03:37:54;;;;;;;17.70;11.40;;;5.00;99.90;;;;;;4989577;28;20648;-83
2022/11/06 03:40:24;;;;;;;26.80;10.67;;;5.30;99.90;;;;;;4986077;28;20659;-84
2022/11/06 03:42:54;;;;;;;27.03;11.57;;;5.20;99.90;;;;;;4988888;28;20663;-84
2022/11/06 03:45:24;;;;;;;25.80;12.40;;;5.50;99.90;;;;;;4990570;28;21356;-84
2022/11/06 03:47:55;;;;;;;26.90;10.80;;;5.50;99.90;;;;;;4991057;28;20645;-84
2022/11/06 03:50:27;;;;;;;36.03;12.60;;;5.40;99.90;;;;;;4989714;28;20632;-84
2022/11/06 03:52:59;;;;;;;69.13;13.80;;;5.60;99.90;;;;;;4987592;28;20603;-84
2022/11/06 03:55:32;;;;;;;51.00;13.93;;;5.40;99.90;;;;;;4987744;28;20651;-83
2022/11/06 03:58:05;;;;;;;53.57;13.57;;;5.40;99.90;;;;;;4989483;28;20703;-84
2022/11/06 04:00:35;;;;;;;174.90;22.60;;;5.40;99.90;;;;;;4989025;28;20624;-84
2022/11/06 04:03:08;;;;;;;88.77;14.00;;;5.20;99.90;;;;;;4985224;28;20664;-84
2022/11/06 04:05:40;;;;;;;52.40;12.70;;;5.20;99.90;;;;;;4990985;28;20636;-87
2022/11/06 04:13:59;;;;;;;82.07;15.00;;;4.90;99.90;;;;;;4981921;28;20622;-86
2022/11/06 04:16:30;;;;;;;146.87;16.53;;;5.20;99.90;;;;;;4994399;28;20641;-86
2022/11/06 04:18:57;;;;;;;174.57;18.57;;;5.10;99.90;;;;;;4997028;28;20798;-86
2022/11/06 04:21:32;;;;;;;114.60;16.87;;;5.10;99.90;;;;;;5005333;28;20626;-85
2022/11/06 04:27:15;;;;;;;39.37;12.27;;;5.10;99.90;;;;;;5007170;28;20660;-86
2022/11/06 04:30:06;;;;;;;134.80;16.37;;;5.00;99.90;;;;;;5011547;28;21181;-85
2022/11/06 04:32:55;;;;;;;27.57;10.43;;;4.80;99.90;;;;;;5005598;28;20649;-85
2022/11/06 04:35:30;;;;;;;111.47;14.47;;;5.00;99.90;;;;;;5006422;28;20609;-85
2022/11/06 04:38:04;;;;;;;32.97;11.00;;;4.80;99.90;;;;;;5006219;28;20866;-85
2022/11/06 04:40:36;;;;;;;47.43;11.20;;;4.70;99.90;;;;;;5018859;28;20869;-86
2022/11/06 04:43:07;;;;;;;50.00;11.83;;;4.90;99.90;;;;;;4999336;28;20641;-85
2022/11/06 04:45:40;;;;;;;57.03;12.00;;;5.10;99.90;;;;;;4995220;28;20632;-86
2022/11/06 04:48:13;;;;;;;19.10;10.43;;;5.10;99.90;;;;;;4991249;28;20656;-85
2022/11/06 04:50:46;;;;;;;21.77;10.73;;;4.90;99.90;;;;;;4991712;28;20653;-86
2022/11/06 04:53:15;;;;;;;53.23;12.10;;;5.00;99.90;;;;;;4983500;28;20663;-85
2022/11/06 04:55:46;;;;;;;28.00;11.70;;;5.10;99.90;;;;;;4994639;28;20642;-85
2022/11/06 04:58:13;;;;;;;23.67;10.03;;;5.10;99.90;;;;;;4985272;28;20653;-85
2022/11/06 05:00:46;;;;;;;78.53;12.33;;;5.00;99.90;;;;;;4979934;28;20625;-86
2022/11/06 05:03:14;;;;;;;68.03;13.70;;;4.90;99.90;;;;;;4982255;28;20723;-86
2022/11/06 05:05:42;;;;;;;155.20;17.03;;;4.90;99.90;;;;;;4989631;28;20636;-86
2022/11/06 05:08:14;;;;;;;16.30;9.70;;;5.00;99.90;;;;;;4984601;28;20666;-86
2022/11/06 05:10:41;;;;;;;92.30;13.57;;;4.80;99.90;;;;;;4994093;28;20692;-85
2022/11/06 05:13:08;;;;;;;46.33;11.70;;;5.00;99.90;;;;;;4992831;28;20631;-86
2022/11/06 05:15:35;;;;;;;54.03;11.67;;;4.90;99.90;;;;;;4981626;28;20670;-86
2022/11/06 05:18:03;;;;;;;118.20;14.07;;;4.90;99.90;;;;;;4987319;28;21274;-86
2022/11/06 05:20:31;;;;;;;56.97;10.50;;;5.00;99.90;;;;;;4983039;28;20640;-85
2022/11/06 05:22:57;;;;;;;29.63;9.47;;;4.60;99.90;;;;;;4984729;28;21262;-86
2022/11/06 05:25:28;;;;;;;88.87;12.30;;;5.00;99.90;;;;;;4981246;28;20643;-86
2022/11/06 05:27:55;;;;;;;28.50;9.30;;;4.30;99.90;;;;;;4981047;28;20658;-86
2022/11/06 05:30:23;;;;;;;13.70;9.37;;;4.60;99.90;;;;;;4983155;28;20663;-86
2022/11/06 05:32:50;;;;;;;104.93;14.77;;;4.40;99.90;;;;;;4986247;28;20638;-85
2022/11/06 05:35:20;;;;;;;18.20;9.27;;;4.70;99.90;;;;;;4979922;28;20631;-86
2022/11/06 05:37:48;;;;;;;127.80;16.73;;;4.50;99.90;;;;;;4979586;28;21236;-86
2022/11/06 05:40:17;;;;;;;55.33;10.53;;;4.50;99.90;;;;;;4986341;28;20637;-85
2022/11/06 05:42:44;;;;;;;17.67;8.50;;;4.60;99.90;;;;;;4981159;28;20668;-85
2022/11/06 05:45:12;;;;;;;18.70;9.80;;;4.10;99.90;;;;;;4980739;28;20624;-86
2022/11/06 05:47:40;;;;;;;58.87;11.03;;;4.80;99.90;;;;;;4977572;28;20654;-86
2022/11/06 05:50:08;;;;;;;19.27;8.67;;;4.60;99.90;;;;;;4966244;28;20999;-85
2022/11/06 05:52:37;;;;;;;19.97;8.83;;;4.80;99.90;;;;;;4979774;28;20989;-85
2022/11/06 05:55:05;;;;;;;23.80;8.83;;;4.60;99.90;;;;;;4981116;28;21272;-86
2022/11/06 05:57:31;;;;;;;41.07;9.73;;;4.80;99.90;;;;;;4982324;28;20656;-86
2022/11/06 05:59:59;;;;;;;114.60;14.60;;;4.50;99.90;;;;;;4982090;28;20624;-87
2022/11/06 06:02:26;;;;;;;24.50;8.60;;;4.50;99.90;;;;;;4978626;28;20666;-87
2022/11/06 06:04:53;;;;;;;27.50;8.30;;;4.60;99.90;;;;;;4984356;28;20639;-87
2022/11/06 06:07:19;;;;;;;11.43;7.93;;;4.70;99.90;;;;;;4977238;28;20653;-86
2022/11/06 06:09:48;;;;;;;21.70;8.10;;;4.50;99.90;;;;;;4984111;28;20649;-86
2022/11/06 06:12:16;;;;;;;27.90;9.60;;;4.40;99.90;;;;;;4979802;28;20641;-86
2022/11/06 06:14:43;;;;;;;8.97;7.90;;;4.50;99.90;;;;;;4978263;28;20647;-86
2022/11/06 06:17:09;;;;;;;15.57;7.97;;;4.40;99.90;;;;;;4985386;28;20648;-86
2022/11/06 06:19:36;;;;;;;19.83;8.90;;;4.60;99.90;;;;;;4979388;28;20624;-86
2022/11/06 06:22:03;;;;;;;20.03;8.47;;;4.50;99.90;;;;;;4984032;28;20632;-88
2022/11/06 06:24:30;;;;;;;9.50;7.87;;;4.80;99.90;;;;;;4983665;28;20640;-87
2022/11/06 06:26:58;;;;;;;23.97;8.90;;;4.70;99.90;;;;;;4983370;28;20633;-86
2022/11/06 06:29:25;;;;;;;19.13;8.63;;;4.60;99.90;;;;;;4974096;28;20625;-87
2022/11/06 06:31:53;;;;;;;19.30;8.23;;;4.50;99.90;;;;;;4970288;28;20659;-87
2022/11/06 06:34:21;;;;;;;13.60;7.97;;;4.80;99.90;;;;;;4980468;28;20629;-88
2022/11/06 06:36:50;;;;;;;28.33;8.83;;;4.70;99.90;;;;;;4984742;28;20627;-88
2022/11/06 06:39:17;;;;;;;12.23;8.57;;;4.60;99.90;;;;;;4982237;28;20641;-88
2022/11/06 06:41:44;;;;;;;8.20;7.60;;;4.80;99.90;;;;;;4978873;28;20633;-86
2022/11/06 06:44:16;;;;;;;17.10;9.20;;;4.90;99.90;;;;;;4979970;28;20661;-87
2022/11/06 06:46:43;;;;;;;14.40;8.37;;;5.00;99.90;;;;;;4981078;28;21044;-87
2022/11/06 06:49:10;;;;;;;10.83;8.00;;;5.00;99.90;;;;;;4985731;28;20629;-87
2022/11/06 06:51:37;;;;;;;24.80;9.13;;;4.70;99.90;;;;;;4980995;28;20647;-87
2022/11/06 06:54:04;;;;;;;59.20;9.90;;;4.70;99.90;;;;;;4981829;28;20664;-87
2022/11/06 06:56:30;;;;;;;25.20;9.20;;;4.90;99.90;;;;;;4983476;28;20641;-89
2022/11/06 06:58:57;;;;;;;11.60;8.07;;;4.60;99.90;;;;;;4977933;28;20673;-87
2022/11/06 07:01:26;;;;;;;21.97;8.60;;;4.60;99.90;;;;;;4976124;28;20642;-87
2022/11/06 07:03:52;;;;;;;9.47;8.47;;;5.00;99.90;;;;;;4974000;28;20684;-89
2022/11/06 07:06:19;;;;;;;9.90;8.07;;;5.10;99.90;;;;;;4980628;28;20660;-88
2022/11/06 07:08:46;;;;;;;33.03;8.90;;;5.00;99.90;;;;;;4989760;28;20673;-86
2022/11/06 07:11:13;;;;;;;8.63;7.67;;;5.20;99.90;;;;;;4981820;28;20646;-88
2022/11/06 07:13:40;;;;;;;13.00;7.20;;;5.20;99.90;;;;;;4982129;28;20636;-87
2022/11/06 07:16:09;;;;;;;13.53;7.27;;;5.30;99.90;;;;;;4978752;28;21163;-86
2022/11/06 07:18:38;;;;;;;15.90;8.00;;;5.20;99.90;;;;;;4983281;28;20681;-86
2022/11/06 07:21:06;;;;;;;24.43;7.50;;;5.20;99.90;;;;;;4980199;28;21197;-85
2022/11/06 07:23:34;;;;;;;8.20;7.43;;;5.30;99.90;;;;;;4980056;28;20673;-85
2022/11/06 07:26:01;;;;;;;9.23;8.23;;;5.40;99.90;;;;;;4978636;28;20641;-85
2022/11/06 07:28:28;;;;;;;11.70;8.97;;;5.30;99.90;;;;;;4980023;28;21033;-85
2022/11/06 07:30:58;;;;;;;27.13;9.83;;;5.20;99.90;;;;;;4990239;28;20657;-85
2022/11/06 07:33:25;;;;;;;21.60;7.70;;;5.00;99.90;;;;;;4978692;28;20614;-85
2022/11/06 07:35:53;;;;;;;77.97;11.27;;;4.90;99.90;;;;;;4980596;28;20929;-86
2022/11/06 07:38:20;;;;;;;53.77;9.87;;;4.90;99.90;;;;;;4979658;28;20684;-85
2022/11/06 07:40:47;;;;;;;120.50;14.60;;;5.10;99.90;;;;;;4974928;28;20644;-86
2022/11/06 07:43:14;;;;;;;21.23;9.33;;;4.90;99.90;;;;;;4979746;28;20662;-86
2022/11/06 07:45:40;;;;;;;43.57;11.73;;;4.70;99.90;;;;;;4978184;28;20735;-85
2022/11/06 07:48:07;;;;;;;17.60;8.80;;;4.80;99.90;;;;;;4981765;28;20649;-85
2022/11/06 07:50:34;;;;;;;11.33;7.77;;;4.80;99.90;;;;;;4976587;28;21057;-86
2022/11/06 07:53:03;;;;;;;27.30;9.30;;;4.50;99.90;;;;;;4982218;28;20636;-85
2022/11/06 07:55:30;;;;;;;15.00;8.20;;;4.80;99.90;;;;;;4963841;28;21194;-86
2022/11/06 07:57:58;;;;;;;15.83;8.67;;;5.00;99.90;;;;;;4980082;28;20662;-87
2022/11/06 08:00:25;;;;;;;21.87;9.03;;;5.10;99.90;;;;;;4986617;28;20701;-85
2022/11/06 08:02:52;;;;;;;13.03;8.23;;;4.80;99.90;;;;;;4980100;28;20678;-87
2022/11/06 08:05:19;;;;;;;15.47;8.07;;;4.40;99.90;;;;;;4985826;28;20696;-85
2022/11/06 08:07:46;;;;;;;29.67;9.10;;;5.20;99.90;;;;;;4980824;28;20664;-86
2022/11/06 08:10:15;;;;;;;31.77;9.30;;;5.10;99.90;;;;;;4983292;28;20637;-86
2022/11/06 08:12:42;;;;;;;29.07;10.00;;;5.00;99.90;;;;;;4987863;28;20636;-86
2022/11/06 08:15:09;;;;;;;16.37;8.10;;;4.50;99.90;;;;;;4982434;28;20640;-86
2022/11/06 08:17:36;;;;;;;17.27;8.30;;;5.00;99.90;;;;;;4982475;28;21256;-87
2022/11/06 08:20:03;;;;;;;18.83;9.30;;;5.40;99.90;;;;;;4981502;28;20640;-86
2022/11/06 08:22:30;;;;;;;55.03;11.90;;;5.10;99.90;;;;;;4987041;28;20628;-87
2022/11/06 08:24:57;;;;;;;12.93;9.67;;;5.50;99.90;;;;;;4976831;28;20681;-86
2022/11/06 08:27:25;;;;;;;22.00;10.50;;;5.40;99.90;;;;;;4980056;28;20658;-86
2022/11/06 08:29:52;;;;;;;16.50;9.20;;;5.30;99.90;;;;;;4982711;28;20635;-87
2022/11/06 08:32:19;;;;;;;36.50;10.70;;;5.50;99.90;;;;;;4985880;28;20636;-86
2022/11/06 08:34:46;;;;;;;46.87;11.20;;;5.30;99.90;;;;;;4983530;28;20628;-87
2022/11/06 08:37:12;;;;;;;13.23;10.07;;;5.40;99.90;;;;;;4977191;28;20763;-87
2022/11/06 08:39:39;;;;;;;24.83;9.30;;;5.30;99.90;;;;;;4989428;28;20627;-87
2022/11/06 08:42:07;;;;;;;17.27;11.13;;;5.00;99.90;;;;;;4983715;28;20631;-86
2022/11/06 08:44:35;;;;;;;51.63;12.97;;;5.60;99.90;;;;;;4982424;28;20664;-87
2022/11/06 08:47:02;;;;;;;18.00;10.97;;;5.50;99.90;;;;;;4986632;28;20659;-87
2022/11/06 08:49:30;;;;;;;12.10;10.83;;;5.60;99.90;;;;;;4983657;28;20612;-87
2022/11/06 08:51:57;;;;;;;18.97;10.70;;;5.60;99.90;;;;;;4986004;28;20628;-87
2022/11/06 08:54:24;;;;;;;10.50;9.60;;;5.50;99.90;;;;;;4982175;28;20612;-86
2022/11/06 08:56:51;;;;;;;11.97;10.93;;;5.90;99.90;;;;;;4981767;28;20728;-86
2022/11/06 08:59:17;;;;;;;13.27;12.13;;;5.80;99.90;;;;;;4978091;28;20628;-86
2022/11/06 09:01:46;;;;;;;17.03;12.00;;;6.00;99.90;;;;;;4979838;28;20636;-86
2022/11/06 09:04:13;;;;;;;18.23;12.33;;;6.00;99.90;;;;;;4981608;28;20648;-87
2022/11/06 09:06:39;;;;;;;12.90;11.80;;;6.10;99.90;;;;;;4977422;28;20633;-86
2022/11/06 09:09:06;;;;;;;20.67;13.13;;;6.20;99.90;;;;;;4981490;28;20643;-87
2022/11/06 09:11:34;;;;;;;13.60;12.30;;;6.20;99.90;;;;;;4982244;28;20620;-87
2022/11/06 09:14:01;;;;;;;12.70;11.60;;;6.30;99.90;;;;;;4987028;28;20628;-87
2022/11/06 09:16:28;;;;;;;18.37;15.43;;;6.40;99.90;;;;;;4982262;28;20666;-87
2022/11/06 09:18:56;;;;;;;35.20;20.93;;;6.50;99.90;;;;;;4985336;28;21311;-87
2022/11/06 09:21:23;;;;;;;15.77;14.27;;;6.60;99.90;;;;;;4986642;28;20664;-87
2022/11/06 09:23:50;;;;;;;15.17;13.57;;;6.80;99.90;;;;;;4983187;28;21298;-87
2022/11/06 09:26:17;;;;;;;15.43;14.20;;;6.90;99.90;;;;;;4986982;28;20640;-87
2022/11/06 09:28:44;;;;;;;12.97;11.93;;;7.00;99.90;;;;;;4982450;28;20685;-87
2022/11/06 09:31:11;;;;;;;13.80;12.70;;;6.90;99.90;;;;;;4985016;28;20632;-88
2022/11/06 09:33:38;;;;;;;14.10;13.00;;;7.30;99.90;;;;;;4983846;28;20643;-87
2022/11/06 09:36:07;;;;;;;14.33;12.90;;;7.20;99.90;;;;;;4983208;28;20636;-88
2022/11/06 09:38:34;;;;;;;13.20;12.20;;;7.30;99.90;;;;;;4981904;28;20652;-88
2022/11/06 09:41:03;;;;;;;15.63;14.27;;;7.30;99.90;;;;;;4979939;28;20641;-89
2022/11/06 09:43:43;;;;;;;14.10;12.90;;;7.50;99.90;;;;;;4979735;28;20665;-89
2022/11/06 09:46:20;;;;;;;14.73;13.53;;;7.70;99.90;;;;;;4978172;28;20636;-89
2022/11/06 09:48:54;;;;;;;12.90;11.90;;;7.50;99.90;;;;;;4979703;28;21283;-88
2022/11/06 09:51:31;;;;;;;15.60;14.30;;;8.30;99.90;;;;;;4982036;28;21018;-88
2022/11/06 09:54:04;;;;;;;13.07;11.97;;;8.60;99.90;;;;;;4979179;28;20620;-88
2022/11/06 09:56:39;;;;;;;11.43;10.50;;;8.90;99.90;;;;;;4985540;28;20728;-88
2022/11/06 09:59:11;;;;;;;11.23;10.33;;;9.40;99.90;;;;;;4982648;28;20631;-89
2022/11/06 10:01:42;;;;;;;11.23;10.23;;;9.80;99.90;;;;;;4986499;28;20962;-89
2022/11/06 10:04:22;;;;;;;11.60;10.60;;;9.60;99.90;;;;;;4982789;28;20664;-88
2022/11/06 10:06:51;;;;;;;11.10;10.17;;;10.10;99.90;;;;;;4982203;28;20629;-89
2022/11/06 10:09:19;;;;;;;11.67;10.60;;;10.50;55.80;;;;;;4981416;28;20648;-88
2022/11/06 10:11:54;;;;;;;11.00;10.10;;;10.70;56.60;;;;;;4981211;28;20621;-88
2022/11/06 10:14:34;;;;;;;11.60;10.70;;;10.90;35.00;;;;;;4983146;28;20623;-89
2022/11/06 10:17:11;;;;;;;12.57;11.50;;;11.10;4.50;;;;;;4979454;28;20652;-88
2022/11/06 10:19:41;;;;;;;11.67;10.67;;;11.60;1.00;;;;;;4979927;28;21032;-88
2022/11/06 10:22:15;;;;;;;11.03;10.23;;;12.00;1.00;;;;;;4983626;28;20635;-89
2022/11/06 10:24:47;;;;;;;10.93;10.07;;;12.20;1.00;;;;;;4977980;28;20686;-89
2022/11/06 10:27:17;;;;;;;10.40;8.90;;;12.60;1.00;;;;;;4980341;28;21015;-89
2022/11/06 10:30:04;;;;;;;9.93;8.97;;;12.90;1.00;;;;;;4982401;28;20644;-89
2022/11/06 10:33:03;;;;;;;8.87;8.00;;;13.30;1.00;;;;;;4976515;28;20645;-89
2022/11/06 10:35:37;;;;;;;8.13;7.43;;;13.70;99.90;;;;;;4982843;28;20639;-89
2022/11/06 10:38:10;;;;;;;7.90;7.20;;;14.00;99.90;;;;;;4981689;28;20656;-90
2022/11/06 10:40:37;;;;;;;6.93;6.43;;;14.20;58.00;;;;;;4985368;28;20736;-89
2022/11/06 10:43:14;;;;;;;6.80;6.30;;;14.50;1.00;;;;;;4979618;28;20609;-89
2022/11/06 10:45:44;;;;;;;7.27;6.57;;;14.60;99.90;;;;;;4981553;28;20692;-89
2022/11/06 10:48:20;;;;;;;7.47;6.87;;;14.60;1.00;;;;;;4980069;28;21241;-89
2022/11/06 10:50:59;;;;;;;7.03;6.37;;;14.60;99.90;;;;;;4978139;28;21181;-89
2022/11/06 10:53:38;;;;;;;6.60;6.00;;;14.70;37.70;;;;;;4983750;28;20664;-89
2022/11/06 10:56:40;;;;;;;7.07;6.43;;;14.90;99.90;;;;;;4977619;28;20640;-89
2022/11/06 10:59:08;;;;;;;7.00;6.30;;;15.00;99.90;;;;;;4977186;28;20624;-90
2022/11/06 11:01:35;;;;;;;7.73;5.63;;;14.90;1.00;;;;;;4980863;28;20632;-89
2022/11/06 11:04:01;;;;;;;8.10;6.47;;;14.60;1.00;;;;;;4984565;28;20668;-89
2022/11/06 11:06:28;;;;;;;6.47;5.97;;;14.70;1.00;;;;;;4987735;28;20635;-88
2022/11/06 11:08:56;;;;;;;6.87;6.33;;;14.70;99.90;;;;;;4988708;28;20655;-89
2022/11/06 11:11:25;;;;;;;6.40;5.90;;;14.60;99.90;;;;;;4981551;28;20711;-88
2022/11/06 11:14:13;;;;;;;5.67;5.27;;;14.60;1.00;;;;;;4985643;28;20624;-89
2022/11/06 11:16:43;;;;;;;6.20;5.63;;;14.50;1.00;;;;;;4980396;28;20637;-88
2022/11/06 11:19:24;;;;;;;5.67;5.27;;;14.10;1.00;;;;;;4980282;28;20660;-88
2022/11/06 11:21:56;;;;;;;6.83;6.33;;;13.80;99.90;;;;;;4975954;28;20629;-89
2022/11/06 11:24:25;;;;;;;6.97;6.10;;;14.00;99.90;;;;;;4976680;28;20673;-86
2022/11/06 11:26:53;;;;;;;6.30;5.50;;;14.10;1.00;;;;;;4983878;28;21212;-89
2022/11/06 11:29:24;;;;;;;7.13;5.40;;;14.30;1.00;;;;;;4981864;28;20656;-89
2022/11/06 11:31:53;;;;;;;6.60;6.00;;;14.50;99.90;;;;;;4985214;28;20675;-91
2022/11/06 11:34:24;;;;;;;5.70;5.20;;;14.70;1.00;;;;;;4983082;28;21343;-89
2022/11/06 11:36:58;;;;;;;7.13;6.43;;;14.90;1.00;;;;;;4984720;28;20656;-89
2022/11/06 11:39:30;;;;;;;7.17;6.57;;;15.10;99.90;;;;;;4984013;28;20632;-89
2022/11/06 11:42:25;;;;;;;6.60;6.10;;;15.40;99.90;;;;;;4978504;28;20992;-87
2022/11/06 11:45:16;;;;;;;5.70;5.20;;;15.80;1.00;;;;;;4983042;28;20687;-87
2022/11/06 11:47:46;;;;;;;5.20;4.80;;;16.10;1.00;;;;;;4982918;28;20724;-86
2022/11/06 11:50:33;;;;;;;21.73;6.60;;;16.40;99.90;;;;;;4983402;28;20734;-85
2022/11/06 11:53:10;;;;;;;6.30;5.70;;;16.60;31.70;;;;;;4985327;28;20624;-86
2022/11/06 11:55:41;;;;;;;6.57;5.97;;;16.70;1.00;;;;;;4990215;28;20640;-86
2022/11/06 11:58:21;;;;;;;6.30;5.53;;;16.90;99.90;;;;;;4983617;28;20637;-86
2022/11/06 12:00:55;;;;;;;7.20;6.53;;;17.10;1.00;;;;;;4983774;28;20667;-86
2022/11/06 12:03:25;;;;;;;4.97;4.67;;;17.50;99.90;;;;;;4982595;28;20636;-87
2022/11/06 12:05:53;;;;;;;4.27;3.97;;;18.20;94.00;;;;;;4987627;28;20664;-87
2022/11/06 12:08:25;;;;;;;5.03;3.60;;;18.60;1.00;;;;;;4977926;28;20633;-87
2022/11/06 12:11:02;;;;;;;2.80;2.60;;;18.80;1.00;;;;;;4985889;28;20656;-87
2022/11/06 12:13:29;;;;;;;2.13;2.03;;;18.90;99.90;;;;;;4979781;28;20624;-86
2022/11/06 12:15:59;;;;;;;2.97;2.67;;;19.20;99.90;;;;;;4979128;28;20640;-88
2022/11/06 12:18:30;;;;;;;2.73;2.53;;;19.50;99.90;;;;;;4981120;28;20648;-87
2022/11/06 12:21:02;;;;;;;2.80;2.60;;;19.10;99.90;;;;;;4981108;28;21034;-87
2022/11/06 12:23:36;;;;;;;2.00;1.90;;;19.60;99.90;;;;;;4981973;28;20634;-87
2022/11/06 12:26:11;;;;;;;3.00;2.80;;;19.80;99.90;;;;;;4982307;28;20674;-87
2022/11/06 12:28:42;;;;;;;2.90;2.70;;;20.00;99.90;;;;;;4979809;28;20625;-88
2022/11/06 12:31:18;;;;;;;2.83;2.53;;;19.80;99.90;;;;;;4979570;28;20681;-88
2022/11/06 12:33:47;;;;;;;2.57;2.37;;;19.90;99.90;;;;;;4984759;28;20624;-88
2022/11/06 12:36:18;;;;;;;1.90;1.80;;;19.90;99.90;;;;;;4981425;28;21002;-88
2022/11/06 12:38:52;;;;;;;2.10;2.00;;;20.10;99.90;;;;;;4980241;28;20633;-88
2022/11/06 12:41:25;;;;;;;2.00;1.90;;;20.00;99.90;;;;;;4984342;28;20631;-87
2022/11/06 12:43:55;;;;;;;2.20;2.00;;;20.20;99.90;;;;;;4982761;28;20619;-88
2022/11/06 12:46:38;;;;;;;2.70;1.90;;;20.50;99.90;;;;;;4978374;28;20672;-88
2022/11/06 12:49:46;;;;;;;5.23;2.03;;;20.40;99.90;;;;;;4982435;28;20620;-88
2022/11/06 12:52:24;;;;;;;2.93;1.90;;;20.00;99.90;;;;;;4953711;28;20819;-87
2022/11/06 12:55:10;;;;;;;2.00;1.90;;;20.00;99.90;;;;;;4981138;28;20636;-87
2022/11/06 12:57:55;;;;;;;2.43;2.23;;;19.30;99.90;;;;;;4982041;28;20621;-87
2022/11/06 13:00:24;;;;;;;2.40;2.20;;;18.40;99.90;;;;;;4977904;28;20665;-87
2022/11/06 13:03:18;;;;;;;2.37;2.17;;;18.60;99.90;;;;;;4980685;28;20738;-88
2022/11/06 13:05:53;;;;;;;1.77;1.67;;;18.70;99.90;;;;;;4967318;28;20688;-88
2022/11/06 13:08:31;;;;;;;1.90;1.80;;;18.00;99.90;;;;;;4976930;28;20656;-88
2022/11/06 13:11:10;;;;;;;2.80;2.60;;;17.70;99.90;;;;;;4983385;28;20644;-88